Time;durP1;ratioP1;P1;durP2;ratioP2;P2;SDS_P1;SDS_P2;PMS_P1;PMS_P2;Temp;Humidity;BMP_temperature;BMP_pressure;BME280_temperature;BME280_humidity;BME280_pressure;Samples;Min_cycle;Max_cycle;Signal;HPM_P1;HPM_P2
2022/11/03 00:02:21;;;;;;;21.30;12.63;;;;;;;13.56;77.08;100677.50;4439181;32;33603;-74
2022/11/03 00:04:50;;;;;;;20.75;11.93;;;;;;;13.52;77.13;100670.38;4442901;32;33733;-74
2022/11/03 00:07:22;;;;;;;20.48;12.25;;;;;;;13.53;77.40;100671.25;4435247;32;34689;-74
2022/11/03 00:09:50;;;;;;;22.50;13.70;;;;;;;13.52;77.46;100672.97;4432561;32;34104;-74
2022/11/03 00:12:18;;;;;;;20.52;13.02;;;;;;;13.34;78.54;100674.69;4435615;32;33394;-74
2022/11/03 00:14:47;;;;;;;23.33;13.23;;;;;;;13.37;78.04;100664.44;4438901;32;33942;-74
2022/11/03 00:17:15;;;;;;;19.37;12.02;;;;;;;13.31;78.19;100671.97;4439586;32;33909;-74
2022/11/03 00:19:43;;;;;;;22.62;12.05;;;;;;;12.73;80.88;100677.78;4438005;32;34319;-75
2022/11/03 00:22:10;;;;;;;21.35;11.60;;;;;;;13.34;78.46;100665.16;4442609;32;34591;-75
2022/11/03 00:24:40;;;;;;;21.85;11.27;;;;;;;13.57;76.80;100667.97;4422244;32;33620;-74
2022/11/03 00:27:07;;;;;;;17.98;10.32;;;;;;;13.29;78.33;100673.53;4433992;32;34372;-74
2022/11/03 00:29:36;;;;;;;20.23;11.23;;;;;;;13.70;75.95;100664.22;4436442;32;34049;-74
2022/11/03 00:32:04;;;;;;;22.75;11.18;;;;;;;13.87;74.73;100673.69;4439093;32;34448;-74
2022/11/03 00:34:32;;;;;;;19.67;10.57;;;;;;;13.73;75.14;100672.16;4431253;32;32895;-74
2022/11/03 00:37:00;;;;;;;20.37;9.93;;;;;;;13.24;77.24;100672.44;4432571;32;34017;-74
2022/11/03 00:39:28;;;;;;;19.85;10.27;;;;;;;13.45;76.38;100663.09;4435668;32;33804;-74
2022/11/03 00:41:57;;;;;;;16.52;10.23;;;;;;;13.18;77.88;100670.44;4435628;32;33516;-74
2022/11/03 00:44:26;;;;;;;15.82;10.13;;;;;;;13.01;77.87;100666.12;4435609;32;33760;-74
2022/11/03 00:46:54;;;;;;;16.12;9.65;;;;;;;12.79;78.82;100678.97;4437374;32;34625;-75
2022/11/03 00:49:22;;;;;;;17.17;9.88;;;;;;;12.91;78.20;100677.78;4430373;32;33948;-74
2022/11/03 00:51:49;;;;;;;17.00;9.32;;;;;;;12.74;78.78;100664.84;4437015;32;34358;-74
2022/11/03 00:54:18;;;;;;;13.70;8.73;;;;;;;12.84;77.99;100675.69;4438127;32;34537;-75
2022/11/03 00:56:48;;;;;;;19.12;9.38;;;;;;;12.67;78.47;100672.25;4437033;32;33292;-74
2022/11/03 00:59:17;;;;;;;12.98;8.50;;;;;;;12.65;78.66;100674.81;4441554;32;33868;-74
2022/11/03 01:01:45;;;;;;;17.05;9.23;;;;;;;12.65;78.74;100676.47;4444906;32;34299;-74
2022/11/03 01:07:05;;;;;;;16.90;8.90;;;;;;;12.75;77.62;100661.44;4433791;32;34596;-74
2022/11/03 01:09:40;;;;;;;17.83;8.20;;;;;;;13.05;76.59;100661.13;4437512;32;34615;-74
2022/11/03 01:12:14;;;;;;;12.20;7.72;;;;;;;13.01;76.09;100661.81;4435296;32;33659;-74
2022/11/03 01:14:47;;;;;;;11.77;7.10;;;;;;;13.15;74.65;100659.88;4437339;32;33578;-74
2022/11/03 01:17:24;;;;;;;12.60;6.43;;;;;;;13.18;73.94;100653.13;4433662;32;33768;-74
2022/11/03 01:19:53;;;;;;;10.00;5.70;;;;;;;12.93;74.16;100647.56;4427811;32;32248;-74
2022/11/03 01:22:22;;;;;;;10.77;6.05;;;;;;;12.76;74.60;100652.81;4441289;32;34274;-74
2022/11/03 01:24:53;;;;;;;10.38;5.12;;;;;;;12.46;76.00;100652.19;4436431;32;33674;-74
2022/11/03 01:27:22;;;;;;;13.52;4.75;;;;;;;12.53;75.86;100653.38;4440915;32;34649;-74
2022/11/03 01:29:50;;;;;;;8.50;3.97;;;;;;;12.31;76.48;100634.09;4433047;32;34340;-74
2022/11/03 01:32:18;;;;;;;9.38;4.18;;;;;;;12.79;74.00;100629.56;4442834;32;33539;-74
2022/11/03 01:34:46;;;;;;;8.93;3.97;;;;;;;12.81;73.74;100641.75;4441627;32;34850;-74
2022/11/03 01:37:15;;;;;;;15.77;3.75;;;;;;;12.92;73.12;100633.66;4439648;32;34745;-74
2022/11/03 01:39:43;;;;;;;11.90;4.05;;;;;;;13.08;71.99;100634.41;4447887;32;33800;-73
2022/11/03 01:42:13;;;;;;;9.25;3.65;;;;;;;12.82;72.69;100628.81;4428740;32;34228;-74
2022/11/03 01:44:47;;;;;;;11.10;3.67;;;;;;;13.22;71.03;100628.13;4436695;32;33540;-73
2022/11/03 01:47:28;;;;;;;6.97;3.83;;;;;;;13.32;70.63;100634.69;4444014;32;33932;-74
2022/11/03 01:50:17;;;;;;;8.55;3.65;;;;;;;13.57;69.40;100635.00;4445896;32;34028;-74
2022/11/03 01:52:54;;;;;;;8.00;3.87;;;;;;;13.56;69.41;100630.63;4420409;32;33435;-74
2022/11/03 01:55:27;;;;;;;9.82;3.95;;;;;;;13.28;70.47;100632.75;4438735;32;34625;-74
2022/11/03 01:58:02;;;;;;;7.68;3.22;;;;;;;13.23;70.37;100629.03;4410653;32;34555;-73
2022/11/03 02:00:33;;;;;;;8.27;3.55;;;;;;;13.29;69.68;100625.03;4441788;32;33809;-73
2022/11/03 02:03:03;;;;;;;9.68;3.70;;;;;;;13.25;69.86;100627.37;4424398;32;34278;-73
2022/11/03 02:05:32;;;;;;;8.52;3.97;;;;;;;13.35;69.65;100624.44;4451240;32;34507;-74
2022/11/03 02:08:07;;;;;;;8.13;3.83;;;;;;;13.61;68.53;100627.34;4418630;32;33886;-74
2022/11/03 02:10:41;;;;;;;8.38;3.67;;;;;;;13.74;67.98;100633.19;4429772;32;33930;-73
2022/11/03 02:13:19;;;;;;;8.40;3.62;;;;;;;12.89;71.61;100635.22;4432281;32;34260;-74
2022/11/03 02:15:49;;;;;;;10.43;3.75;;;;;;;13.64;68.22;100627.50;4427467;32;33920;-74
2022/11/03 02:18:22;;;;;;;8.60;3.30;;;;;;;14.02;66.30;100630.91;4443362;32;34439;-74
2022/11/03 02:21:16;;;;;;;7.15;3.20;;;;;;;14.26;65.04;100637.22;4446280;32;34277;-74
2022/11/03 02:24:14;;;;;;;7.57;3.95;;;;;;;13.26;68.31;100634.38;4445958;32;34243;-75
2022/11/03 02:26:47;;;;;;;10.77;3.37;;;;;;;12.18;73.33;100642.06;4440456;32;33825;-74
2022/11/03 02:29:17;;;;;;;13.30;4.03;;;;;;;11.87;75.10;100648.22;4434909;32;33848;-74
2022/11/03 02:31:57;;;;;;;9.32;4.53;;;;;;;11.61;76.20;100647.72;4426335;32;33834;-74
2022/11/03 02:35:00;;;;;;;13.65;4.87;;;;;;;11.12;78.66;100642.41;4432794;32;34377;-74
2022/11/03 02:37:34;;;;;;;9.00;5.03;;;;;;;10.78;81.32;100640.53;4430001;32;33697;-74
2022/11/03 02:40:06;;;;;;;11.88;5.90;;;;;;;10.51;82.75;100650.19;4430580;32;33120;-74
2022/11/03 02:42:35;;;;;;;10.13;5.12;;;;;;;10.00;85.97;100654.88;4449112;32;34055;-74
2022/11/03 02:45:08;;;;;;;11.30;5.75;;;;;;;9.82;87.11;100648.59;4438769;32;33450;-74
2022/11/03 02:47:44;;;;;;;13.10;5.15;;;;;;;9.53;88.37;100649.41;4436673;32;34717;-74
2022/11/03 02:50:12;;;;;;;9.93;5.03;;;;;;;9.62;89.41;100640.50;4433179;32;33494;-74
2022/11/03 02:52:44;;;;;;;10.68;4.72;;;;;;;10.12;87.28;100648.66;4438908;32;34845;-74
2022/11/03 02:55:22;;;;;;;11.82;5.80;;;;;;;10.76;83.89;100647.31;4411418;32;33042;-75
2022/11/03 02:58:04;;;;;;;10.52;6.12;;;;;;;11.05;80.46;100632.53;4426935;32;32879;-75
2022/11/03 03:01:01;;;;;;;10.05;5.85;;;;;;;10.72;81.45;100634.09;4431708;32;34026;-74
2022/11/03 03:03:37;;;;;;;10.68;5.90;;;;;;;10.82;81.05;100636.41;4431928;32;33031;-75
2022/11/03 03:06:10;;;;;;;10.48;5.22;;;;;;;11.43;77.50;100632.84;4425354;32;34372;-74
2022/11/03 03:08:42;;;;;;;11.55;6.07;;;;;;;10.53;81.68;100632.16;4435688;32;34114;-74
2022/11/03 03:11:13;;;;;;;10.05;5.22;;;;;;;9.52;86.87;100627.81;4429039;32;184542;-74
2022/11/03 03:13:43;;;;;;;8.93;5.03;;;;;;;9.25;88.84;100635.62;4446187;32;32605;-74
2022/11/03 03:16:34;;;;;;;13.30;5.93;;;;;;;9.48;88.39;100633.56;4438008;32;32841;-74
2022/11/03 03:19:15;;;;;;;11.60;5.65;;;;;;;10.09;85.77;100627.78;4441278;32;33713;-74
2022/11/03 03:21:45;;;;;;;10.93;6.25;;;;;;;10.57;83.25;100628.94;4436276;32;33748;-73
2022/11/03 03:24:36;;;;;;;10.18;5.57;;;;;;;11.11;80.31;100635.47;4443522;32;33867;-74
2022/11/03 03:27:09;;;;;;;13.40;6.28;;;;;;;10.59;80.74;100637.69;4435401;32;34485;-75
2022/11/03 03:29:58;;;;;;;10.75;4.72;;;;;;;10.18;83.28;100628.34;4433682;32;34867;-74
2022/11/03 03:32:28;;;;;;;11.52;5.12;;;;;;;10.03;83.82;100626.63;4435637;32;32125;-74
2022/11/03 03:34:56;;;;;;;11.65;5.93;;;;;;;9.33;86.78;100635.19;4442640;32;33629;-74
2022/11/03 03:37:25;;;;;;;9.25;6.07;;;;;;;8.91;89.89;100636.84;4428806;32;33482;-74
2022/11/03 03:39:59;;;;;;;11.68;5.87;;;;;;;8.76;91.38;100637.63;4431537;32;34388;-74
2022/11/03 03:42:29;;;;;;;;;;;;;;;9.07;88.13;100634.44;4422545;32;34792;-74
2022/11/03 03:44:59;;;;;;;11.30;6.03;;;;;;;8.52;92.46;100634.34;4418201;32;35827;-74
2022/11/03 03:47:32;;;;;;;13.18;5.95;;;;;;;8.73;90.44;100633.94;4430036;32;34197;-74
2022/11/03 03:50:00;;;;;;;12.13;6.15;;;;;;;8.75;90.61;100642.69;4445738;32;33681;-74
2022/11/03 03:52:28;;;;;;;11.00;5.97;;;;;;;8.36;93.90;100637.53;4438272;32;33635;-74
2022/11/03 03:54:56;;;;;;;9.60;5.60;;;;;;;8.90;90.12;100629.87;4436510;32;33974;-73
2022/11/03 03:57:27;;;;;;;15.35;7.47;;;;;;;9.24;87.10;100641.59;4423566;32;33426;-73
2022/11/03 03:59:56;;;;;;;13.07;6.72;;;;;;;9.73;85.24;100637.69;4425688;32;33755;-73
2022/11/03 04:02:24;;;;;;;9.65;6.20;;;;;;;9.75;84.13;100636.09;4428951;32;34526;-74
2022/11/03 04:04:52;;;;;;;11.68;6.32;;;;;;;10.89;78.62;100637.63;4427423;32;34801;-74
2022/11/03 04:10:10;;;;;;;11.25;6.82;;;;;;;10.29;80.00;100653.16;4426761;32;33424;-73
2022/11/03 04:24:05;;;;;;;11.75;6.12;;;;;;;10.27;80.28;100647.00;4433045;32;33781;-74
2022/11/03 04:26:33;;;;;;;13.10;6.45;;;;;;;10.31;80.77;100646.41;4439749;32;34099;-74
2022/11/03 04:29:01;;;;;;;14.45;6.72;;;;;;;10.58;78.60;100643.66;4446731;32;33394;-74
2022/11/03 04:31:30;;;;;;;12.82;6.85;;;;;;;10.05;80.75;100634.47;4435185;32;32621;-74
2022/11/03 04:33:58;;;;;;;13.52;6.78;;;;;;;9.37;83.00;100637.22;4428542;32;33725;-74
2022/11/03 04:36:26;;;;;;;14.38;7.18;;;;;;;8.90;86.42;100645.38;4436305;32;34043;-74
2022/11/03 04:38:55;;;;;;;12.80;6.75;;;;;;;8.74;87.81;100646.97;4440123;32;32157;-74
2022/11/03 04:41:28;;;;;;;16.87;8.38;;;;;;;8.50;88.44;100645.34;4439575;32;33869;-74
2022/11/03 04:43:57;;;;;;;13.43;7.72;;;;;;;8.51;88.54;100644.56;4412579;32;32641;-74
2022/11/03 04:46:27;;;;;;;14.00;7.07;;;;;;;8.71;86.56;100646.78;4432858;32;34292;-74
2022/11/03 04:48:58;;;;;;;16.27;6.80;;;;;;;8.97;85.86;100660.50;4432356;32;32795;-74
2022/11/03 04:51:30;;;;;;;16.23;8.10;;;;;;;9.90;81.31;100643.91;4415891;32;33923;-74
2022/11/03 04:54:10;;;;;;;16.83;8.13;;;;;;;8.45;87.34;100648.50;4438645;32;34612;-74
2022/11/03 04:56:39;;;;;;;16.40;8.70;;;;;;;7.65;92.49;100644.75;4424656;32;33946;-74
2022/11/03 04:59:12;;;;;;;14.23;8.43;;;;;;;7.94;92.27;100646.75;4438464;32;33826;-73
2022/11/03 05:01:42;;;;;;;17.80;9.00;;;;;;;7.92;92.48;100653.50;4430305;32;33772;-74
2022/11/03 05:04:13;;;;;;;17.62;8.30;;;;;;;8.13;90.77;100656.66;4425726;32;33323;-73
2022/11/03 05:07:01;;;;;;;13.40;8.63;;;;;;;9.24;86.61;100646.75;4426486;32;33886;-73
2022/11/03 05:09:30;;;;;;;14.70;9.75;;;;;;;10.32;78.89;100645.62;4444567;32;33964;-74
2022/11/03 05:11:59;;;;;;;14.55;8.43;;;;;;;8.82;84.72;100657.81;4441388;32;33565;-74
2022/11/03 05:14:29;;;;;;;13.52;8.25;;;;;;;9.22;83.76;100653.53;4446989;32;33483;-74
2022/11/03 05:16:57;;;;;;;15.18;8.57;;;;;;;9.84;80.87;100655.66;4439488;32;33670;-73
2022/11/03 05:19:38;;;;;;;12.90;8.43;;;;;;;10.51;77.41;100647.59;4432636;32;33551;-73
2022/11/03 05:22:13;;;;;;;14.63;8.95;;;;;;;10.54;77.40;100649.47;4441142;32;33665;-73
2022/11/03 05:24:41;;;;;;;13.40;7.82;;;;;;;10.72;76.81;100640.19;4448107;32;33780;-74
2022/11/03 05:27:18;;;;;;;17.17;8.20;;;;;;;10.79;76.30;100647.47;4446790;32;33978;-74
2022/11/03 05:29:47;;;;;;;16.33;9.18;;;;;;;10.98;75.41;100643.34;4443954;32;33444;-73
2022/11/03 05:32:23;;;;;;;14.00;7.85;;;;;;;9.62;80.64;100648.28;4429327;32;33795;-74
2022/11/03 05:34:54;;;;;;;16.65;8.80;;;;;;;8.81;85.34;100654.34;4431769;32;33497;-74
2022/11/03 05:37:23;;;;;;;17.15;9.50;;;;;;;8.60;87.35;100661.56;4446215;32;33780;-74
2022/11/03 05:39:57;;;;;;;15.15;8.75;;;;;;;8.39;89.06;100655.81;4439049;32;34026;-74
2022/11/03 05:42:40;;;;;;;15.45;7.55;;;;;;;8.24;90.18;100655.69;4430701;32;34033;-74
2022/11/03 05:45:22;;;;;;;15.68;8.25;;;;;;;8.29;90.11;100661.16;4439881;32;34677;-74
2022/11/03 05:47:54;;;;;;;14.85;7.97;;;;;;;7.97;91.12;100662.44;4429465;32;35145;-74
2022/11/03 05:50:25;;;;;;;15.80;7.93;;;;;;;8.04;90.64;100656.03;4439472;32;34394;-74
2022/11/03 05:53:15;;;;;;;14.80;7.82;;;;;;;8.15;90.19;100661.91;4423562;32;34061;-74
2022/11/03 05:55:44;;;;;;;13.07;8.05;;;;;;;8.34;88.80;100657.19;4434801;32;34784;-74
2022/11/03 05:58:23;;;;;;;12.75;6.93;;;;;;;8.50;87.97;100656.59;4431523;32;37385;-74
2022/11/03 06:00:53;;;;;;;14.00;6.87;;;;;;;9.09;85.87;100665.56;4436111;32;33432;-74
2022/11/03 06:03:28;;;;;;;14.82;7.80;;;;;;;9.79;81.62;100671.69;4428077;32;33591;-74
2022/11/03 06:05:56;;;;;;;;;;;;;;;9.37;83.46;100687.22;4431501;32;33978;-74
2022/11/03 06:08:33;;;;;;;13.43;8.65;;;;;;;9.94;81.09;100693.34;4424149;32;34092;-74
2022/11/03 06:11:03;;;;;;;15.27;7.80;;;;;;;10.41;79.49;100685.00;4443178;32;33852;-74
2022/11/03 06:13:36;;;;;;;50.47;31.00;;;;;;;10.18;80.45;100690.47;4442024;32;33718;-74
2022/11/03 06:16:36;;;;;;;25.67;15.30;;;;;;;10.92;77.14;100685.38;4436116;32;34569;-73
2022/11/03 06:19:19;;;;;;;22.25;11.90;;;;;;;10.53;77.94;100690.03;4430898;32;33825;-75
2022/11/03 06:21:49;;;;;;;17.50;8.25;;;;;;;10.26;78.83;100693.50;4435743;32;33633;-74
2022/11/03 06:24:21;;;;;;;12.50;8.13;;;;;;;10.38;79.78;100697.78;4426744;32;33850;-74
2022/11/03 06:26:51;;;;;;;13.30;7.62;;;;;;;10.69;78.63;100702.19;4437407;32;34783;-74
2022/11/03 06:29:20;;;;;;;15.05;7.40;;;;;;;10.37;79.53;100708.94;4433502;32;33403;-74
2022/11/03 06:31:54;;;;;;;14.40;8.18;;;;;;;10.12;81.31;100710.78;4430737;32;32907;-74
2022/11/03 06:34:43;;;;;;;12.27;7.15;;;;;;;10.55;79.86;100713.44;4426981;32;33715;-74
2022/11/03 06:37:25;;;;;;;12.65;7.12;;;;;;;10.85;78.47;100714.31;4428914;32;33711;-75
2022/11/03 06:39:58;;;;;;;10.95;6.72;;;;;;;11.09;77.81;100714.87;4416698;32;33776;-75
2022/11/03 06:42:30;;;;;;;12.55;6.70;;;;;;;11.48;76.39;100715.31;4427141;32;32387;-74
2022/11/03 06:45:02;;;;;;;15.25;6.90;;;;;;;11.34;76.93;100716.25;4437636;32;34644;-74
2022/11/03 06:47:31;;;;;;;13.07;7.32;;;;;;;10.93;78.77;100713.09;4444041;32;32655;-74
2022/11/03 06:49:59;;;;;;;16.33;7.75;;;;;;;11.63;76.49;100720.47;4425693;32;34203;-75
2022/11/03 06:52:31;;;;;;;12.05;7.28;;;;;;;11.84;75.51;100719.84;4429908;32;33195;-74
2022/11/03 06:55:12;;;;;;;12.70;7.93;;;;;;;11.98;74.98;100714.63;4426424;32;33652;-74
2022/11/03 06:57:46;;;;;;;12.50;6.97;;;;;;;12.60;72.82;100712.66;4437575;32;33711;-74
2022/11/03 07:00:21;;;;;;;12.77;7.65;;;;;;;12.47;73.07;100710.22;4426147;32;34905;-73
2022/11/03 07:03:32;;;;;;;13.35;7.57;;;;;;;12.29;74.19;100720.56;4433255;32;33753;-73
2022/11/03 07:06:13;;;;;;;13.68;6.90;;;;;;;12.31;74.10;100724.13;4449066;32;34694;-74
2022/11/03 07:08:46;;;;;;;13.20;7.68;;;;;;;12.70;72.68;100725.28;4429318;32;33878;-74
2022/11/03 07:11:19;;;;;;;11.30;6.87;;;;;;;12.69;72.62;100718.31;4430812;32;33842;-74
2022/11/03 07:13:51;;;;;;;13.38;7.03;;;;;;;12.50;73.51;100720.78;4423308;32;33258;-75
2022/11/03 07:16:36;;;;;;;14.18;6.87;;;;;;;12.59;73.30;100721.25;4426939;32;34523;-74
2022/11/03 07:19:21;;;;;;;13.45;7.30;;;;;;;12.44;73.90;100725.66;4446830;32;34526;-74
2022/11/03 07:21:52;;;;;;;14.87;6.95;;;;;;;12.72;73.25;100723.66;4423330;32;33958;-74
2022/11/03 07:24:26;;;;;;;13.68;7.10;;;;;;;13.04;72.03;100721.78;4438168;32;33823;-74
2022/11/03 07:27:19;;;;;;;12.45;7.37;;;;;;;12.69;73.58;100722.59;4445034;32;34477;-74
2022/11/03 07:29:49;;;;;;;12.45;6.85;;;;;;;12.84;73.22;100727.69;4439538;32;34596;-74
2022/11/03 07:32:30;;;;;;;13.45;7.28;;;;;;;13.14;72.53;100734.44;4431571;32;32671;-74
2022/11/03 07:35:17;;;;;;;15.32;7.90;;;;;;;13.45;71.82;100730.75;4426510;32;33669;-76
2022/11/03 07:37:46;;;;;;;14.90;7.12;;;;;;;13.34;72.59;100721.53;4430753;32;34553;-76
2022/11/03 07:40:22;;;;;;;12.13;7.10;;;;;;;13.42;72.90;100720.19;4437396;32;32637;-76
2022/11/03 07:42:56;;;;;;;18.83;8.70;;;;;;;13.59;72.71;100713.19;4413114;32;32026;-76
2022/11/03 07:45:52;;;;;;;21.48;9.77;;;;;;;13.65;72.92;100717.78;4410552;32;34211;-76
2022/11/03 07:48:23;;;;;;;18.65;9.93;;;;;;;13.82;72.24;100719.47;4424242;32;34107;-76
2022/11/03 07:50:54;;;;;;;20.52;9.45;;;;;;;13.63;72.82;100714.22;4432849;32;33919;-75
2022/11/03 07:53:34;;;;;;;22.62;10.98;;;;;;;14.05;71.85;100709.22;4433057;32;34354;-74
2022/11/03 07:56:20;;;;;;;20.58;11.10;;;;;;;13.80;73.05;100708.09;4433833;32;33325;-74
2022/11/03 07:58:54;;;;;;;24.45;12.40;;;;;;;13.77;73.83;100705.31;4426395;32;33823;-74
2022/11/03 08:01:30;;;;;;;24.45;12.37;;;;;;;14.05;73.29;100704.87;4430428;32;33730;-74
2022/11/03 08:04:04;;;;;;;24.92;12.93;;;;;;;13.73;74.66;100706.00;4426372;32;34264;-74
2022/11/03 08:06:32;;;;;;;27.27;14.52;;;;;;;13.98;73.99;100692.41;4410473;32;33463;-74
2022/11/03 08:09:00;;;;;;;29.42;14.50;;;;;;;13.61;76.00;100700.25;4432366;32;33735;-74
2022/11/03 08:11:29;;;;;;;27.42;14.18;;;;;;;13.43;77.45;100695.97;4434350;32;33586;-74
2022/11/03 08:13:58;;;;;;;31.50;14.80;;;;;;;13.96;75.79;100692.34;4439404;32;34489;-74
2022/11/03 08:16:29;;;;;;;29.87;14.50;;;;;;;13.86;75.79;100695.34;4418846;32;32533;-74
2022/11/03 08:18:59;;;;;;;30.95;14.55;;;;;;;14.03;75.33;100693.50;4442048;32;33472;-77
2022/11/03 08:21:28;;;;;;;29.27;16.05;;;;;;;14.29;74.30;100693.78;4433873;32;34618;-75
2022/11/03 08:23:58;;;;;;;32.67;16.42;;;;;;;14.35;74.32;100694.94;4448074;32;33933;-75
2022/11/03 08:26:28;;;;;;;32.20;16.27;;;;;;;14.26;74.36;100698.88;4444143;32;33579;-75
2022/11/03 08:28:55;;;;;;;29.05;14.93;;;;;;;14.23;74.89;100694.37;4429325;32;34577;-75
2022/11/03 08:31:23;;;;;;;33.75;15.60;;;;;;;14.78;73.00;100695.06;4440124;32;34544;-75
2022/11/03 08:33:54;;;;;;;32.00;15.82;;;;;;;14.72;73.00;100691.34;4430210;32;34150;-75
2022/11/03 08:36:23;;;;;;;31.70;14.52;;;;;;;14.50;74.57;100693.81;4425420;32;34185;-75
2022/11/03 08:38:54;;;;;;;32.45;15.20;;;;;;;14.27;75.28;100693.69;4429243;32;33743;-75
2022/11/03 08:41:21;;;;;;;30.27;14.43;;;;;;;14.15;76.25;100700.97;4445173;32;34755;-75
2022/11/03 08:43:50;;;;;;;31.48;14.98;;;;;;;13.89;77.54;100697.22;4426531;32;33983;-75
2022/11/03 08:46:20;;;;;;;28.35;13.95;;;;;;;14.51;75.17;100685.19;4443728;32;33332;-78
2022/11/03 08:48:50;;;;;;;32.22;15.43;;;;;;;14.07;77.36;100685.00;4408570;32;34010;-77
2022/11/03 08:51:21;;;;;;;28.67;15.18;;;;;;;13.82;78.45;100680.41;4426825;32;31796;-75
2022/11/03 08:53:52;;;;;;;32.55;15.80;;;;;;;13.85;78.59;100680.56;4422846;32;33831;-75
2022/11/03 08:56:21;;;;;;;33.95;15.88;;;;;;;14.16;77.59;100681.94;4440325;32;34309;-76
2022/11/03 08:58:54;;;;;;;33.92;16.83;;;;;;;14.35;76.35;100679.31;4424453;32;34719;-75
2022/11/03 09:01:24;;;;;;;35.95;16.95;;;;;;;14.58;75.29;100671.59;4418296;32;32773;-76
2022/11/03 09:03:53;;;;;;;34.47;18.73;;;;;;;14.19;77.57;100676.84;4431330;32;34265;-74
2022/11/03 09:06:23;;;;;;;33.72;18.20;;;;;;;14.13;77.16;100671.37;4445881;32;34352;-75
2022/11/03 09:08:52;;;;;;;36.80;19.42;;;;;;;14.00;77.87;100671.63;4419270;32;33797;-75
2022/11/03 09:11:42;;;;;;;31.45;17.95;;;;;;;13.64;79.85;100674.37;4441618;32;33636;-76
2022/11/03 09:14:21;;;;;;;31.52;18.40;;;;;;;13.75;79.21;100667.91;4431928;32;34010;-75
2022/11/03 09:16:50;;;;;;;35.28;17.90;;;;;;;13.93;78.44;100668.75;4425646;32;33343;-75
2022/11/03 09:19:19;;;;;;;43.53;22.15;;;;;;;13.98;78.40;100665.47;4429753;32;32750;-72
2022/11/03 09:21:48;;;;;;;37.58;16.73;;;;;;;14.19;78.04;100666.41;4434806;32;33928;-75
2022/11/03 09:24:16;;;;;;;33.25;16.42;;;;;;;14.20;77.89;100668.22;4436826;32;34642;-75
2022/11/03 09:26:50;;;;;;;35.70;18.23;;;;;;;14.28;77.18;100666.81;4440248;32;33322;-76
2022/11/03 09:29:20;;;;;;;31.05;17.35;;;;;;;13.98;78.58;100660.25;4438179;32;32234;-75
2022/11/03 09:31:49;;;;;;;35.65;16.33;;;;;;;14.32;77.40;100658.31;4444235;32;34561;-77
2022/11/03 09:34:17;;;;;;;33.30;16.70;;;;;;;14.18;77.70;100659.44;4441040;32;33909;-75
2022/11/03 09:36:45;;;;;;;34.42;17.85;;;;;;;14.68;75.92;100658.16;4445820;32;33808;-75
2022/11/03 09:39:21;;;;;;;33.42;16.62;;;;;;;14.78;75.57;100659.41;4447806;32;34193;-75
2022/11/03 09:41:50;;;;;;;35.47;17.75;;;;;;;14.54;77.05;100654.00;4428873;32;32718;-74
2022/11/03 09:44:26;;;;;;;37.42;18.30;;;;;;;14.61;76.45;100647.41;4431916;32;33843;-75
2022/11/03 09:46:55;;;;;;;45.30;27.33;;;;;;;14.57;76.62;100648.97;4432819;32;33135;-74
2022/11/03 09:49:27;;;;;;;38.60;20.02;;;;;;;14.27;78.34;100648.50;4436284;32;33683;-74
2022/11/03 09:51:56;;;;;;;53.67;28.55;;;;;;;14.55;77.32;100640.16;4448217;32;33741;-75
2022/11/03 09:54:26;;;;;;;59.17;34.13;;;;;;;14.06;79.21;100638.03;4436447;32;34770;-75
2022/11/03 09:57:05;;;;;;;47.78;23.52;;;;;;;14.32;78.01;100632.25;4426170;32;33452;-76
2022/11/03 09:59:33;;;;;;;54.33;29.35;;;;;;;14.03;79.73;100630.09;4424134;32;33622;-76
2022/11/03 10:02:37;;;;;;;46.17;23.52;;;;;;;14.00;79.98;100623.03;4434155;32;33985;-75
2022/11/03 10:05:08;;;;;;;47.83;24.30;;;;;;;14.16;79.17;100625.50;4426147;32;33885;-74
2022/11/03 10:07:38;;;;;;;40.10;20.12;;;;;;;14.41;78.20;100618.75;4446747;32;31944;-76
2022/11/03 10:10:15;;;;;;;42.45;20.50;;;;;;;14.78;76.89;100611.59;4439840;32;33461;-75
2022/11/03 10:12:45;;;;;;;54.72;29.05;;;;;;;14.46;77.91;100606.75;4428967;32;34403;-75
2022/11/03 10:15:16;;;;;;;56.83;32.03;;;;;;;14.18;79.17;100602.13;4432589;32;34882;-75
2022/11/03 10:17:46;;;;;;;47.67;28.40;;;;;;;14.05;79.94;100602.41;4439588;32;33739;-75
2022/11/03 10:20:17;;;;;;;52.40;27.02;;;;;;;13.99;80.01;100591.72;4447857;32;33868;-75
2022/11/03 10:22:47;;;;;;;57.60;29.63;;;;;;;13.68;80.80;100595.56;4446283;32;34738;-75
2022/11/03 10:25:37;;;;;;;45.03;21.42;;;;;;;14.08;79.06;100584.28;4440449;32;34250;-76
2022/11/03 10:28:20;;;;;;;109.93;50.67;;;;;;;14.26;77.50;100590.31;4442099;32;34203;-75
2022/11/03 10:30:54;;;;;;;69.43;34.30;;;;;;;13.81;79.66;100578.78;4426684;32;33943;-75
2022/11/03 10:33:51;;;;;;;33.92;17.62;;;;;;;13.91;79.55;100581.84;4439652;32;33921;-76
2022/11/03 10:36:24;;;;;;;30.65;17.10;;;;;;;13.65;80.70;100577.19;4446216;32;34039;-76
2022/11/03 10:38:54;;;;;;;36.10;17.20;;;;;;;13.88;79.50;100575.63;4446981;32;34519;-75
2022/11/03 10:41:29;;;;;;;38.13;17.05;;;;;;;13.94;79.62;100576.75;4441540;32;34439;-76
2022/11/03 10:44:17;;;;;;;41.92;17.87;;;;;;;13.87;79.09;100564.31;4428290;32;33731;-73
2022/11/03 10:46:59;;;;;;;39.13;19.17;;;;;;;13.85;80.30;100559.84;4429726;32;34881;-76
2022/11/03 10:49:31;;;;;;;41.28;18.58;;;;;;;13.89;80.30;100557.47;4448151;32;34396;-75
2022/11/03 10:52:28;;;;;;;38.35;19.27;;;;;;;14.13;78.70;100551.53;4442677;32;34598;-75
2022/11/03 10:54:57;;;;;;;36.33;17.70;;;;;;;13.94;79.33;100548.13;4445608;32;34706;-75
2022/11/03 10:57:27;;;;;;;37.22;17.90;;;;;;;14.01;79.21;100543.19;4439475;32;33718;-75
2022/11/03 10:59:58;;;;;;;42.67;20.30;;;;;;;13.66;80.72;100537.34;4449406;32;33790;-75
2022/11/03 11:02:31;;;;;;;41.37;20.05;;;;;;;13.79;80.34;100541.34;4444531;32;33617;-74
2022/11/03 11:05:01;;;;;;;41.97;21.40;;;;;;;13.73;80.73;100544.59;4445441;32;33915;-75
2022/11/03 11:07:32;;;;;;;44.70;20.77;;;;;;;13.98;79.40;100527.41;4447420;32;34764;-74
2022/11/03 11:10:07;;;;;;;40.60;19.73;;;;;;;13.55;81.32;100529.94;4438654;32;34507;-74
2022/11/03 11:12:35;;;;;;;46.03;22.48;;;;;;;13.62;80.85;100520.69;4444335;32;33648;-74
2022/11/03 11:15:35;;;;;;;39.03;19.02;;;;;;;13.77;80.67;100523.06;4446456;32;34576;-75
2022/11/03 11:18:04;;;;;;;44.67;20.95;;;;;;;14.14;79.38;100514.22;4429530;32;34797;-74
2022/11/03 11:20:40;;;;;;;41.00;19.48;;;;;;;14.22;78.58;100514.56;4444278;32;34313;-74
2022/11/03 11:23:28;;;;;;;42.67;20.15;;;;;;;14.08;79.05;100513.94;4460066;32;33984;-76
2022/11/03 11:26:08;;;;;;;39.97;19.33;;;;;;;14.00;79.60;100511.03;4427560;32;33858;-74
2022/11/03 11:29:08;;;;;;;41.97;20.58;;;;;;;14.22;78.82;100502.41;4444576;32;34267;-76
2022/11/03 11:31:44;;;;;;;39.13;18.90;;;;;;;13.87;80.22;100499.22;4423871;32;33676;-75
2022/11/03 11:34:16;;;;;;;37.55;18.42;;;;;;;13.69;81.15;100495.81;4447861;32;34536;-76
2022/11/03 11:37:06;;;;;;;38.17;18.45;;;;;;;13.78;80.07;100485.78;4440572;32;34641;-75
2022/11/03 11:39:43;;;;;;;37.67;17.75;;;;;;;14.06;79.63;100486.94;4426323;32;33728;-75
2022/11/03 11:42:18;;;;;;;37.50;18.23;;;;;;;13.80;80.56;100489.34;4440083;32;32467;-75
2022/11/03 11:44:56;;;;;;;38.42;19.12;;;;;;;13.67;80.77;100479.22;4446759;32;33966;-75
2022/11/03 11:47:44;;;;;;;42.40;20.65;;;;;;;13.77;80.24;100476.19;4426063;32;34623;-75
2022/11/03 11:50:17;;;;;;;47.40;18.02;;;;;;;14.15;79.04;100472.59;4447878;32;34088;-74
2022/11/03 11:52:50;;;;;;;37.95;17.80;;;;;;;13.56;81.06;100473.59;4445712;32;33421;-75
2022/11/03 11:55:30;;;;;;;39.33;18.33;;;;;;;13.88;80.17;100476.66;4439489;32;34457;-75
2022/11/03 11:58:02;;;;;;;38.97;18.90;;;;;;;13.67;81.05;100471.41;4416805;32;34862;-75
2022/11/03 12:00:34;;;;;;;38.55;17.95;;;;;;;13.94;79.59;100456.94;4416759;32;34844;-76
2022/11/03 12:03:05;;;;;;;37.25;19.02;;;;;;;13.94;79.41;100450.87;4434291;32;33659;-75
2022/11/03 12:05:35;;;;;;;34.67;17.85;;;;;;;14.24;78.64;100445.16;4446671;32;33774;-75